OICK  Khoram Abad  Airport

Iran

Add Bookmark
ICAO OICK
IATA KHD
Type Airport
Status Operational
Latitude
33° 26' 7" N
33.435398
Longitude
48° 16' 58" E
48.282902
Local (DST + 5) UTC (GMT + 4)
Jul 3, 2015 01:55 Jul 2, 2015 21:25
Sunrise-Sunset Local UTC
Begin Civil Twilight 05:41 01:11
Sunrise 06:10 01:40
Sunset 08:31 16:01
End Civil Twilight 09:00 16:30
VFR
VFR
MVFR
MVFR
IFR
IFR
LIFR
LIFR
Unknown
Unavailable

Current Weather

METAR Observed VFR
OICK 021200Z 00000KT 9999 FEW045 42/M04 Q1011 Thu, Jul 2, 2015 @ 12:00 UTC
(9 Hours, 25 Minutes ago)
Visual Flight Rules
Wind Visibility Clouds Conditions
Calm 10 km or more
  • Few at 4,500 ft AGL
  • No significant weather
Temperatures Readings Precipitation
Current Temp
42°C
108°F
Dewpoint
-4°C
25°F
Humidity 5%
Altimeter 29.85" Hg
Sea Level Pressure 1,011 mb
Field Elevation
1,155 m
3,789 ft
None Recorded
-
-

CheckWX.com is intended as a tool to help pilots better visualize weather data. It is not intended as a substitute for an official weather briefing obtained from a Flight Service Station. CheckWX.com does not meet the FAA requirements for an official pre-flight weather briefing. Therefore, it's important that pilots still call and obtain an official FSS pre-flight weather briefing.

© 2007-2015 CheckWX.com
21:25:07 UTC